TRPG METAR and TAF | Updated Today

TRPG METAR

John A. Osborne Airport

Observation time: 9:04 hr. ago

TRPG 192200Z 10015KT 7000 FEW014 26/23 Q1018

Need help? Read our tutorial on how to read METARs or read the parsed version below.

John A. Osborne Airport (TRPG) METAR

  • Weather conditions on Thu, 19 May 2022 22:00:00 +0000 (9:04 hr. ago):
  • Present conditions: Dry
  • Clouds: A few at 427 meters
  • Visibility: 7000 meters
  • Wind: 100 degrees at 15 knots
  • Temperature: 26 celsius
  • Dew point: 23 celsius
  • Pressure: 1018 millibars
  • Remarks: None


Useful to know...

TRPG TAF

John A. Osborne Airport

TAF TRPG 191700Z 1918/2018 09014KT 9999 SCT021
Observation time: 14:04 hr. ago
Need help? Read our tutorial on how to read TAFs or read the parsed version below.

Parsed version of TAF for John A. Osborne Airport (TRPG)

  • From 19 May at 18:00 UTC, to day 20 of the month at 18:00 UTC
  • Clouds: Scattered at 640 meters
  • Visibility: Greater than 10 km
  • Wind: 90 degrees at 14